createdAt,value
2022-08-24T00:00:23.067Z,15.60
2022-08-24T00:02:52.595Z,15.60
2022-08-24T00:05:22.132Z,15.40
2022-08-24T00:07:50.830Z,15.20
2022-08-24T00:10:20.479Z,15.20
2022-08-24T00:12:49.979Z,15.20
2022-08-24T00:15:19.418Z,15.00
2022-08-24T00:17:47.496Z,14.80
2022-08-24T00:20:16.995Z,14.90
2022-08-24T00:22:45.108Z,15.00
2022-08-24T00:25:14.682Z,14.90
2022-08-24T00:27:43.269Z,15.00
2022-08-24T00:30:15.428Z,15.00
2022-08-24T00:32:43.412Z,15.00
2022-08-24T00:35:12.015Z,15.60
2022-08-24T00:37:42.104Z,14.90
2022-08-24T00:40:13.812Z,14.80
2022-08-24T00:42:42.471Z,14.70
2022-08-24T00:45:15.808Z,14.70
2022-08-24T00:47:49.107Z,14.70
2022-08-24T00:50:23.155Z,14.80
2022-08-24T00:52:56.683Z,14.70
2022-08-24T00:55:30.449Z,14.60
2022-08-24T00:58:03.536Z,14.50
2022-08-24T01:00:36.067Z,14.40
2022-08-24T01:03:06.882Z,14.30
2022-08-24T01:05:36.791Z,14.20
2022-08-24T01:08:09.207Z,14.50
2022-08-24T01:10:41.076Z,14.20
2022-08-24T01:13:11.925Z,14.30
2022-08-24T01:15:47.320Z,14.40
2022-08-24T01:18:37.578Z,14.30
2022-08-24T01:21:12.696Z,14.30
2022-08-24T01:23:45.047Z,14.40
2022-08-24T01:26:18.190Z,14.40
2022-08-24T01:28:49.094Z,14.40
2022-08-24T01:31:21.196Z,14.40
2022-08-24T01:33:50.639Z,14.40
2022-08-24T01:36:28.274Z,14.30
2022-08-24T01:39:02.242Z,14.20
2022-08-24T01:41:30.309Z,14.20
2022-08-24T01:43:59.171Z,14.20
2022-08-24T01:46:27.926Z,14.30
2022-08-24T01:48:58.056Z,14.20
2022-08-24T01:51:26.326Z,14.50
2022-08-24T01:53:54.515Z,14.10
2022-08-24T01:56:23.963Z,14.10
2022-08-24T01:58:52.149Z,14.00
2022-08-24T02:01:20.537Z,13.80
2022-08-24T02:03:51.808Z,13.80
2022-08-24T02:06:20.315Z,13.90
2022-08-24T02:08:48.540Z,13.90
2022-08-24T02:11:16.940Z,14.00
2022-08-24T02:13:46.321Z,14.00
2022-08-24T02:16:15.183Z,14.10
2022-08-24T02:18:43.999Z,14.00
2022-08-24T02:21:13.919Z,14.00
2022-08-24T02:23:42.732Z,14.00
2022-08-24T02:26:12.424Z,14.40
2022-08-24T02:28:41.065Z,14.00
2022-08-24T02:31:12.410Z,13.90
2022-08-24T02:33:41.291Z,13.90
2022-08-24T02:36:25.410Z,13.80
2022-08-24T02:38:54.749Z,13.80
2022-08-24T02:41:23.654Z,13.90
2022-08-24T02:43:51.678Z,13.80
2022-08-24T02:46:22.696Z,13.80
2022-08-24T02:48:52.993Z,13.70
2022-08-24T02:51:28.200Z,13.70
2022-08-24T02:53:58.269Z,13.60
2022-08-24T02:56:26.476Z,13.60
2022-08-24T02:58:54.518Z,13.60
2022-08-24T03:01:30.357Z,13.70
2022-08-24T03:03:58.861Z,13.60
2022-08-24T03:06:27.084Z,13.50
2022-08-24T03:08:57.015Z,13.40
2022-08-24T03:11:27.922Z,13.30
2022-08-24T03:13:58.382Z,13.30
2022-08-24T03:16:28.096Z,13.20
2022-08-24T03:18:56.273Z,13.40
2022-08-24T03:21:24.596Z,13.50
2022-08-24T03:23:52.908Z,13.60
2022-08-24T03:26:21.063Z,13.70
2022-08-24T03:28:49.591Z,13.70
2022-08-24T03:31:17.883Z,13.70
2022-08-24T03:33:47.611Z,13.80
2022-08-24T03:36:15.616Z,13.80
2022-08-24T03:38:44.326Z,13.80
2022-08-24T03:41:12.689Z,13.50
2022-08-24T03:43:48.644Z,13.40
2022-08-24T03:46:19.237Z,13.40
2022-08-24T03:48:49.665Z,13.30
2022-08-24T03:51:20.876Z,13.20
2022-08-24T03:53:48.859Z,13.10
2022-08-24T03:56:16.958Z,12.90
2022-08-24T03:58:45.105Z,13.00
2022-08-24T04:01:13.712Z,12.90
2022-08-24T04:03:44.669Z,13.00
2022-08-24T04:06:15.982Z,13.00
2022-08-24T04:08:44.346Z,13.10
2022-08-24T04:11:13.194Z,13.10
2022-08-24T04:13:41.136Z,13.30
2022-08-24T04:16:12.897Z,13.00
2022-08-24T04:18:41.565Z,13.00
2022-08-24T04:21:19.394Z,13.00
2022-08-24T04:23:48.111Z,13.00
2022-08-24T04:26:25.612Z,13.00
2022-08-24T04:29:08.435Z,12.90
2022-08-24T04:31:37.070Z,12.90
2022-08-24T04:34:05.359Z,12.90
2022-08-24T04:36:35.914Z,12.90
2022-08-24T04:39:05.329Z,12.90
2022-08-24T04:41:33.350Z,12.90
2022-08-24T04:44:03.202Z,12.90
2022-08-24T04:46:31.759Z,13.10
2022-08-24T04:48:59.808Z,13.00
2022-08-24T04:51:36.371Z,13.00
2022-08-24T04:54:07.288Z,12.90
2022-08-24T04:56:36.381Z,12.90
2022-08-24T04:59:05.777Z,13.00
2022-08-24T05:01:34.208Z,13.10
2022-08-24T05:04:02.840Z,13.20
2022-08-24T05:06:32.361Z,13.30
2022-08-24T05:09:01.373Z,13.40
2022-08-24T05:11:31.112Z,13.50
2022-08-24T05:14:00.201Z,13.70
2022-08-24T05:16:28.838Z,13.80
2022-08-24T05:19:00.345Z,13.80
2022-08-24T05:21:30.840Z,14.10
2022-08-24T05:23:59.189Z,14.20
2022-08-24T05:26:29.287Z,14.30
2022-08-24T05:29:00.831Z,14.30
2022-08-24T05:31:30.663Z,14.50
2022-08-24T05:33:59.995Z,14.40
2022-08-24T05:36:30.363Z,14.70
2022-08-24T05:39:02.064Z,14.80
2022-08-24T05:41:30.473Z,14.90
2022-08-24T05:44:00.151Z,14.90
2022-08-24T05:46:28.513Z,15.00
2022-08-24T05:48:59.160Z,15.00
2022-08-24T05:51:27.314Z,15.10
2022-08-24T05:53:56.273Z,15.20
2022-08-24T05:56:26.728Z,15.30
2022-08-24T05:58:59.467Z,15.40
2022-08-24T06:01:28.221Z,15.50
2022-08-24T06:03:57.559Z,15.60
2022-08-24T06:06:26.597Z,15.70
2022-08-24T06:08:56.671Z,15.80
2022-08-24T06:11:30.158Z,15.90
2022-08-24T06:14:02.638Z,16.10
2022-08-24T06:16:36.420Z,16.00
2022-08-24T06:19:04.711Z,16.00
2022-08-24T06:21:32.923Z,16.20
2022-08-24T06:24:02.098Z,16.20
2022-08-24T06:26:49.116Z,16.20
2022-08-24T06:29:20.182Z,16.30
2022-08-24T06:31:54.249Z,16.50
2022-08-24T06:34:25.939Z,16.60
2022-08-24T06:36:53.981Z,16.70
2022-08-24T06:39:22.061Z,16.80
2022-08-24T06:41:50.055Z,17.10
2022-08-24T06:44:19.426Z,17.00
2022-08-24T06:46:47.486Z,17.00
2022-08-24T06:49:15.609Z,17.30
2022-08-24T06:51:46.390Z,17.30
2022-08-24T06:54:18.323Z,17.40
2022-08-24T06:56:46.315Z,17.60
2022-08-24T06:59:14.370Z,17.60
2022-08-24T07:01:44.580Z,17.80
2022-08-24T07:04:12.830Z,17.80
2022-08-24T07:06:40.868Z,18.00
2022-08-24T07:09:08.845Z,18.10
2022-08-24T07:11:37.155Z,18.10
2022-08-24T07:19:07.586Z,18.50
2022-08-24T07:21:35.688Z,18.70
2022-08-24T07:24:04.271Z,18.70
2022-08-24T07:26:32.818Z,19.00
2022-08-24T07:29:06.234Z,19.10
2022-08-24T07:31:35.695Z,19.60
2022-08-24T07:34:05.104Z,19.40
2022-08-24T07:36:34.915Z,19.50
2022-08-24T07:39:03.065Z,19.70
2022-08-24T07:41:51.568Z,19.90
2022-08-24T07:44:19.954Z,19.60
2022-08-24T11:16:32.532Z,26.90
2022-08-24T11:19:02.670Z,26.80
2022-08-24T11:21:45.111Z,26.90
2022-08-24T11:24:38.675Z,26.90
2022-08-24T11:27:10.255Z,27.10
2022-08-24T11:30:00.832Z,27.20
2022-08-24T11:32:38.886Z,27.20
2022-08-24T11:35:10.767Z,27.00
2022-08-24T11:37:40.197Z,27.20
2022-08-24T11:40:10.802Z,27.30
2022-08-24T11:43:05.762Z,27.40
2022-08-24T11:45:41.904Z,27.40
2022-08-24T11:48:29.893Z,27.50
2022-08-24T11:51:02.292Z,27.60
2022-08-24T11:56:18.727Z,27.80
2022-08-24T11:58:56.183Z,27.90
2022-08-24T12:01:32.903Z,28.00
2022-08-24T12:04:11.592Z,28.10
2022-08-24T12:06:51.083Z,28.10
2022-08-24T12:09:38.060Z,28.10
2022-08-24T12:12:14.694Z,28.20
2022-08-24T12:14:45.742Z,27.90
2022-08-24T12:17:20.348Z,27.90
2022-08-24T12:19:54.452Z,28.00
2022-08-24T12:22:23.688Z,28.10
2022-08-24T12:24:55.140Z,28.30
2022-08-24T12:27:26.795Z,28.40
2022-08-24T12:30:03.629Z,28.40
2022-08-24T12:32:40.657Z,28.40
2022-08-24T12:35:16.906Z,28.50
2022-08-24T12:37:49.347Z,28.60
2022-08-24T12:40:28.427Z,28.70
2022-08-24T12:43:02.043Z,28.70
2022-08-24T12:45:30.053Z,28.60
2022-08-24T12:48:04.327Z,28.60
2022-08-24T12:50:45.471Z,28.80
2022-08-24T12:53:39.117Z,28.90
2022-08-24T12:56:46.957Z,29.00
2022-08-24T12:59:21.427Z,29.20
2022-08-24T13:02:00.459Z,29.40
2022-08-24T13:04:41.423Z,29.50
2022-08-24T13:07:27.342Z,29.60
2022-08-24T13:10:09.663Z,29.70
2022-08-24T13:13:19.890Z,29.80
2022-08-24T13:16:03.081Z,29.80
2022-08-24T13:19:19.352Z,30.00
2022-08-24T13:21:55.860Z,30.00
2022-08-24T13:25:19.672Z,30.20
2022-08-24T13:28:04.131Z,30.30
2022-08-24T13:30:51.358Z,30.40
2022-08-24T13:33:26.027Z,30.60
2022-08-24T13:36:07.524Z,30.70
2022-08-24T13:39:11.058Z,31.10
2022-08-24T13:42:06.220Z,31.20
2022-08-24T13:45:00.917Z,31.50
2022-08-24T13:55:39.178Z,33.70
2022-08-24T13:58:15.551Z,34.80
2022-08-24T14:00:48.530Z,36.00
2022-08-24T14:03:35.891Z,36.60
2022-08-24T14:06:21.321Z,36.40
2022-08-24T14:08:58.620Z,36.40
2022-08-24T14:11:42.517Z,36.50
2022-08-24T14:14:18.680Z,36.40
2022-08-24T14:17:20.029Z,36.50
2022-08-24T14:20:00.146Z,36.40
2022-08-24T14:22:35.171Z,36.60
2022-08-24T14:25:21.000Z,36.90
2022-08-24T14:27:51.189Z,37.00
2022-08-24T14:30:45.408Z,36.60
2022-08-24T14:33:27.217Z,35.90
2022-08-24T14:36:19.152Z,35.10
2022-08-24T14:39:01.990Z,34.20
2022-08-24T14:41:51.292Z,33.70
2022-08-24T14:44:42.843Z,33.20
2022-08-24T14:47:22.146Z,33.10
2022-08-24T14:50:09.177Z,33.40
2022-08-24T14:53:04.209Z,33.40
2022-08-24T14:55:39.331Z,33.50
2022-08-24T14:58:25.522Z,33.80
2022-08-24T15:06:29.631Z,35.80
2022-08-24T15:09:12.599Z,35.90
2022-08-24T15:11:42.517Z,36.10
2022-08-24T15:14:22.296Z,35.60
2022-08-24T15:17:00.588Z,35.70
2022-08-24T15:19:44.402Z,35.80
2022-08-24T15:22:24.979Z,36.30
2022-08-24T15:25:01.150Z,36.70
2022-08-24T15:27:42.377Z,36.90
2022-08-24T15:30:23.094Z,36.80
2022-08-24T15:32:54.016Z,36.10
2022-08-24T15:35:31.630Z,36.00
2022-08-24T15:38:16.476Z,36.00
2022-08-24T15:40:47.627Z,36.50
2022-08-24T15:43:16.160Z,36.70
2022-08-24T15:45:48.148Z,36.80
2022-08-24T15:48:21.250Z,36.60
2022-08-24T15:50:53.813Z,35.00
2022-08-24T15:53:39.605Z,35.00
2022-08-24T16:06:49.144Z,30.50
2022-08-24T16:09:37.624Z,30.10
2022-08-24T16:12:10.038Z,29.90
2022-08-24T16:14:47.027Z,29.60
2022-08-24T16:20:09.129Z,28.60
2022-08-24T16:22:41.049Z,29.10
2022-08-24T16:25:19.944Z,29.10
2022-08-24T16:27:57.857Z,29.10
2022-08-24T16:30:37.633Z,29.10
2022-08-24T16:33:06.479Z,29.00
2022-08-24T16:35:34.732Z,28.80
2022-08-24T16:38:04.665Z,28.50
2022-08-24T16:40:34.611Z,28.50
2022-08-24T16:43:03.139Z,28.50
2022-08-24T16:45:35.752Z,28.40
2022-08-24T16:48:04.839Z,28.30
2022-08-24T16:55:32.513Z,28.00
2022-08-24T16:58:01.453Z,28.00
2022-08-24T17:00:30.078Z,28.00
2022-08-24T17:02:58.094Z,27.90
2022-08-24T17:05:26.121Z,27.90
2022-08-24T17:07:54.326Z,27.90
2022-08-24T17:10:23.651Z,27.80
2022-08-24T17:12:53.040Z,27.80
